Terminal Aerodrome Forecast
Issued by NWS Caribou, ME

Home | Current Version | Previous Version | Text Only | Print | Product List | Glossary On
Versions: 1 2 3 4 5 6 7 8 9 10 11 12 13 14 15 16
000
FTUS41 KCAR 271425 AAC
TAFCAR
TAF AMD
KCAR 271425Z 2714/2812 32007KT 3SM -SHSN OVC035
     FM271600 30008KT P6SM BKN040
     FM280300 30008KT P6SM SCT050=

USA.gov is the U.S. government's official web portal to all federal, state and local government web resources and services.